Terminal Aerodrome Forecast
Issued by NWS Springfield, MO

Home | Current Version | Previous Version | Text Only | Print | Product List | Glossary On
Versions: 1 2 3 4 5 6 7 8 9 10 11 12 13 14 15 16 17 18 19 20 21 22 23 24 25 26
000
FTUS43 KSGF 142158 AAE
TAFSGF
TAF AMD
KSGF 142158Z 1422/1518 16012KT 6SM BR OVC005
     FM150600 16014KT 4SM -SHRA BR OVC005
     FM151300 28005KT 4SM -SHRA BR OVC003
     FM151700 31006KT 6SM -SHRA OVC008=

USA.gov is the U.S. government's official web portal to all federal, state and local government web resources and services.